sensor_id;sensor_type;location;lat;lon;timestamp;pressure;altitude;pressure_sealevel;temperature;humidity
61109;BME280;46995;55.740;37.402;2023-08-12T00:00:05;99678.13;;;21.60;80.19
61109;BME280;46995;55.740;37.402;2023-08-12T00:02:38;99680.81;;;21.60;80.00
61109;BME280;46995;55.740;37.402;2023-08-12T00:05:05;99667.56;;;21.59;79.94
61109;BME280;46995;55.740;37.402;2023-08-12T00:07:31;99668.81;;;21.56;80.01
61109;BME280;46995;55.740;37.402;2023-08-12T00:09:58;99671.69;;;21.54;80.14
61109;BME280;46995;55.740;37.402;2023-08-12T00:12:24;99669.19;;;21.53;80.09
61109;BME280;46995;55.740;37.402;2023-08-12T00:14:49;99690.72;;;21.53;79.90
61109;BME280;46995;55.740;37.402;2023-08-12T00:17:16;99683.47;;;21.53;80.04
61109;BME280;46995;55.740;37.402;2023-08-12T00:19:42;99690.31;;;21.56;80.00
61109;BME280;46995;55.740;37.402;2023-08-12T00:22:07;99677.31;;;21.60;79.70
61109;BME280;46995;55.740;37.402;2023-08-12T00:24:33;99670.31;;;21.65;79.59
61109;BME280;46995;55.740;37.402;2023-08-12T00:26:58;99674.66;;;21.66;79.41
61109;BME280;46995;55.740;37.402;2023-08-12T00:29:24;99677.34;;;21.66;79.63
61109;BME280;46995;55.740;37.402;2023-08-12T00:31:50;99674.66;;;21.66;79.58
61109;BME280;46995;55.740;37.402;2023-08-12T00:34:16;99673.00;;;21.65;79.55
61109;BME280;46995;55.740;37.402;2023-08-12T00:36:44;99670.91;;;21.67;79.65
61109;BME280;46995;55.740;37.402;2023-08-12T00:39:10;99675.28;;;21.68;79.33
61109;BME280;46995;55.740;37.402;2023-08-12T00:41:35;99677.78;;;21.70;79.21
61109;BME280;46995;55.740;37.402;2023-08-12T00:44:01;99687.28;;;21.72;79.23
61109;BME280;46995;55.740;37.402;2023-08-12T00:46:27;99681.72;;;21.74;79.15
61109;BME280;46995;55.740;37.402;2023-08-12T00:48:53;99683.19;;;21.76;78.89
61109;BME280;46995;55.740;37.402;2023-08-12T00:51:19;99688.34;;;21.78;78.93
61109;BME280;46995;55.740;37.402;2023-08-12T00:53:46;99680.06;;;21.79;78.93
61109;BME280;46995;55.740;37.402;2023-08-12T00:56:12;99691.66;;;21.80;78.94
61109;BME280;46995;55.740;37.402;2023-08-12T00:58:38;99691.84;;;21.78;78.91
61109;BME280;46995;55.740;37.402;2023-08-12T01:01:04;99689.16;;;21.78;78.78
61109;BME280;46995;55.740;37.402;2023-08-12T01:03:30;99687.72;;;21.76;78.87
61109;BME280;46995;55.740;37.402;2023-08-12T01:05:56;99689.97;;;21.72;78.79
61109;BME280;46995;55.740;37.402;2023-08-12T01:08:23;99671.75;;;21.68;79.40
61109;BME280;46995;55.740;37.402;2023-08-12T01:10:52;99669.66;;;21.63;79.20
61109;BME280;46995;55.740;37.402;2023-08-12T01:13:28;99672.13;;;21.58;79.06
61109;BME280;46995;55.740;37.402;2023-08-12T01:15:55;99672.53;;;21.55;79.10
61109;BME280;46995;55.740;37.402;2023-08-12T01:18:23;99680.16;;;21.51;79.38
61109;BME280;46995;55.740;37.402;2023-08-12T01:20:49;99673.31;;;21.49;79.38
61109;BME280;46995;55.740;37.402;2023-08-12T01:23:15;99675.38;;;21.47;79.16
61109;BME280;46995;55.740;37.402;2023-08-12T01:25:41;99673.09;;;21.44;79.10
61109;BME280;46995;55.740;37.402;2023-08-12T01:28:07;99689.41;;;21.42;79.48
61109;BME280;46995;55.740;37.402;2023-08-12T01:30:34;99689.59;;;21.41;79.53
61109;BME280;46995;55.740;37.402;2023-08-12T01:35:50;99678.22;;;21.39;79.23
61109;BME280;46995;55.740;37.402;2023-08-12T01:38:19;99687.13;;;21.39;79.46
61109;BME280;46995;55.740;37.402;2023-08-12T01:40:46;99688.16;;;21.38;79.81
61109;BME280;46995;55.740;37.402;2023-08-12T01:43:13;99689.16;;;21.37;79.50
61109;BME280;46995;55.740;37.402;2023-08-12T01:45:39;99676.97;;;21.35;79.31
61109;BME280;46995;55.740;37.402;2023-08-12T01:48:06;99667.44;;;21.32;79.67
61109;BME280;46995;55.740;37.402;2023-08-12T01:50:32;99659.78;;;21.29;79.29
61109;BME280;46995;55.740;37.402;2023-08-12T01:52:58;99649.22;;;21.28;79.75
61109;BME280;46995;55.740;37.402;2023-08-12T01:55:23;99647.56;;;21.27;79.60
61109;BME280;46995;55.740;37.402;2023-08-12T01:57:49;99645.72;;;21.27;79.64
61109;BME280;46995;55.740;37.402;2023-08-12T02:00:15;99634.13;;;21.27;79.83
61109;BME280;46995;55.740;37.402;2023-08-12T02:02:43;99642.84;;;21.29;79.61
61109;BME280;46995;55.740;37.402;2023-08-12T02:05:12;99641.81;;;21.30;79.67
61109;BME280;46995;55.740;37.402;2023-08-12T02:07:41;99638.53;;;21.34;79.36
61109;BME280;46995;55.740;37.402;2023-08-12T02:10:08;99633.16;;;21.34;79.26
61109;BME280;46995;55.740;37.402;2023-08-12T02:12:34;99630.25;;;21.36;79.48
61109;BME280;46995;55.740;37.402;2023-08-12T02:15:00;99631.06;;;21.36;79.41
61109;BME280;46995;55.740;37.402;2023-08-12T02:17:25;99638.31;;;21.36;79.16
61109;BME280;46995;55.740;37.402;2023-08-12T02:19:51;99639.34;;;21.35;79.22
61109;BME280;46995;55.740;37.402;2023-08-12T02:22:17;99636.44;;;21.36;79.14
61109;BME280;46995;55.740;37.402;2023-08-12T02:24:42;99635.84;;;21.34;79.26
61109;BME280;46995;55.740;37.402;2023-08-12T02:27:08;99623.25;;;21.35;79.12
61109;BME280;46995;55.740;37.402;2023-08-12T02:29:33;99625.94;;;21.35;79.39
61109;BME280;46995;55.740;37.402;2023-08-12T02:31:59;99634.19;;;21.33;79.35
61109;BME280;46995;55.740;37.402;2023-08-12T02:34:25;99630.66;;;21.33;79.48
61109;BME280;46995;55.740;37.402;2023-08-12T02:36:52;99627.78;;;21.34;79.40
61109;BME280;46995;55.740;37.402;2023-08-12T02:39:18;99627.78;;;21.34;79.31
61109;BME280;46995;55.740;37.402;2023-08-12T02:41:44;99621.16;;;21.37;79.13
61109;BME280;46995;55.740;37.402;2023-08-12T02:44:09;99621.16;;;21.37;79.16
61109;BME280;46995;55.740;37.402;2023-08-12T02:46:35;99637.28;;;21.37;79.13
61109;BME280;46995;55.740;37.402;2023-08-12T02:49:01;99642.66;;;21.37;79.04
61109;BME280;46995;55.740;37.402;2023-08-12T02:51:26;99655.06;;;21.38;78.99
61109;BME280;46995;55.740;37.402;2023-08-12T02:53:52;99644.97;;;21.40;78.90
61109;BME280;46995;55.740;37.402;2023-08-12T02:56:18;99648.06;;;21.43;79.22
61109;BME280;46995;55.740;37.402;2023-08-12T02:58:43;99652.19;;;21.46;79.10
61109;BME280;46995;55.740;37.402;2023-08-12T03:01:09;99648.13;;;21.50;78.56
61109;BME280;46995;55.740;37.402;2023-08-12T03:03:35;99652.88;;;21.54;78.75
61109;BME280;46995;55.740;37.402;2023-08-12T03:06:01;99643.56;;;21.57;78.67
61109;BME280;46995;55.740;37.402;2023-08-12T03:08:28;99653.13;;;21.60;78.42
61109;BME280;46995;55.740;37.402;2023-08-12T03:11:00;99642.78;;;21.63;78.59
61109;BME280;46995;55.740;37.402;2023-08-12T03:13:28;99646.72;;;21.67;78.18
61109;BME280;46995;55.740;37.402;2023-08-12T03:15:55;99640.78;;;21.72;78.11
61109;BME280;46995;55.740;37.402;2023-08-12T03:18:20;99631.25;;;21.76;78.12
61109;BME280;46995;55.740;37.402;2023-08-12T03:20:46;99627.13;;;21.80;78.01
61109;BME280;46995;55.740;37.402;2023-08-12T03:23:13;99632.09;;;21.83;77.69
61109;BME280;46995;55.740;37.402;2023-08-12T03:25:39;99612.88;;;21.86;78.13
61109;BME280;46995;55.740;37.402;2023-08-12T03:28:05;99616.81;;;21.90;77.74
61109;BME280;46995;55.740;37.402;2023-08-12T03:30:32;99600.25;;;21.93;77.70
61109;BME280;46995;55.740;37.402;2023-08-12T03:32:58;99593.69;;;21.95;77.56
61109;BME280;46995;55.740;37.402;2023-08-12T03:35:28;99603.44;;;21.96;77.32
61109;BME280;46995;55.740;37.402;2023-08-12T03:37:57;99596.38;;;21.95;77.47
61109;BME280;46995;55.740;37.402;2023-08-12T03:40:22;99597.41;;;21.94;77.53
61109;BME280;46995;55.740;37.402;2023-08-12T03:42:49;99604.66;;;21.94;77.27
61109;BME280;46995;55.740;37.402;2023-08-12T03:45:16;99603.19;;;21.91;77.27
61109;BME280;46995;55.740;37.402;2023-08-12T03:47:42;99608.56;;;21.91;77.36
61109;BME280;46995;55.740;37.402;2023-08-12T03:50:08;99605.22;;;21.89;77.50
61109;BME280;46995;55.740;37.402;2023-08-12T03:52:34;99600.69;;;21.90;77.54
61109;BME280;46995;55.740;37.402;2023-08-12T03:55:00;99599.47;;;21.92;77.61
61109;BME280;46995;55.740;37.402;2023-08-12T03:57:26;99595.16;;;21.98;77.29
61109;BME280;46995;55.740;37.402;2023-08-12T03:59:52;99601.56;;;22.04;77.26
61109;BME280;46995;55.740;37.402;2023-08-12T04:02:17;99613.19;;;22.11;76.80
61109;BME280;46995;55.740;37.402;2023-08-12T04:04:43;99602.81;;;22.14;76.84
61109;BME280;46995;55.740;37.402;2023-08-12T04:07:09;99605.31;;;22.16;76.89
61109;BME280;46995;55.740;37.402;2023-08-12T04:09:35;99609.88;;;22.15;76.74
61109;BME280;46995;55.740;37.402;2023-08-12T04:12:01;99608.44;;;22.13;76.94
61109;BME280;46995;55.740;37.402;2023-08-12T04:14:26;99614.44;;;22.08;76.90
61109;BME280;46995;55.740;37.402;2023-08-12T04:16:52;99626.22;;;22.07;76.92
61109;BME280;46995;55.740;37.402;2023-08-12T04:19:17;99624.75;;;22.05;76.97
61109;BME280;46995;55.740;37.402;2023-08-12T04:21:44;99624.34;;;22.01;76.92
61109;BME280;46995;55.740;37.402;2023-08-12T04:24:12;99619.38;;;21.98;76.98
61109;BME280;46995;55.740;37.402;2023-08-12T04:26:38;99622.63;;;21.93;77.09
61109;BME280;46995;55.740;37.402;2023-08-12T04:29:05;99621.38;;;21.89;76.92
61109;BME280;46995;55.740;37.402;2023-08-12T04:31:34;99620.13;;;21.85;77.13
61109;BME280;46995;55.740;37.402;2023-08-12T04:34:01;99633.75;;;21.84;77.02
61109;BME280;46995;55.740;37.402;2023-08-12T04:36:27;99627.56;;;21.83;76.99
61109;BME280;46995;55.740;37.402;2023-08-12T04:38:53;99614.75;;;21.85;76.73
61109;BME280;46995;55.740;37.402;2023-08-12T04:41:19;99611.03;;;21.86;76.75
61109;BME280;46995;55.740;37.402;2023-08-12T04:43:44;99593.22;;;21.85;76.71
61109;BME280;46995;55.740;37.402;2023-08-12T04:46:11;99597.59;;;21.86;76.49
61109;BME280;46995;55.740;37.402;2023-08-12T04:48:37;99613.31;;;21.89;76.43
61109;BME280;46995;55.740;37.402;2023-08-12T04:51:02;99629.69;;;21.94;76.23
61109;BME280;46995;55.740;37.402;2023-08-12T04:53:28;99630.13;;;21.98;76.05
61109;BME280;46995;55.740;37.402;2023-08-12T04:55:55;99643.81;;;22.03;75.87
61109;BME280;46995;55.740;37.402;2023-08-12T04:58:22;99656.63;;;22.08;75.77
61109;BME280;46995;55.740;37.402;2023-08-12T05:00:49;99653.53;;;22.11;75.85
61109;BME280;46995;55.740;37.402;2023-08-12T05:03:17;99646.69;;;22.15;75.55
61109;BME280;46995;55.740;37.402;2023-08-12T05:05:42;99645.06;;;22.20;75.24
61109;BME280;46995;55.740;37.402;2023-08-12T05:08:08;99647.56;;;22.28;75.08
61109;BME280;46995;55.740;37.402;2023-08-12T05:10:34;99655.03;;;22.33;74.81
61109;BME280;46995;55.740;37.402;2023-08-12T05:13:00;99657.28;;;22.36;74.61
61109;BME280;46995;55.740;37.402;2023-08-12T05:15:26;99640.94;;;22.37;74.24
61109;BME280;46995;55.740;37.402;2023-08-12T05:17:52;99645.09;;;22.40;74.05
61109;BME280;46995;55.740;37.402;2023-08-12T05:20:21;99643.03;;;22.42;73.99
61109;BME280;46995;55.740;37.402;2023-08-12T05:22:48;99635.78;;;22.43;73.74
61109;BME280;46995;55.740;37.402;2023-08-12T05:25:15;99632.47;;;22.40;73.63
61109;BME280;46995;55.740;37.402;2023-08-12T05:27:41;99606.41;;;22.34;73.66
61109;BME280;46995;55.740;37.402;2023-08-12T05:30:07;99598.72;;;22.31;73.62
61109;BME280;46995;55.740;37.402;2023-08-12T05:32:33;99578.44;;;22.29;73.44
61109;BME280;46995;55.740;37.402;2023-08-12T05:35:00;99596.44;;;22.28;73.49
61109;BME280;46995;55.740;37.402;2023-08-12T05:37:26;99590.44;;;22.26;73.65
61109;BME280;46995;55.740;37.402;2023-08-12T05:39:51;99589.59;;;22.26;73.24
61109;BME280;46995;55.740;37.402;2023-08-12T05:42:17;99596.25;;;22.23;73.35
61109;BME280;46995;55.740;37.402;2023-08-12T05:44:42;99582.16;;;22.21;73.01
61109;BME280;46995;55.740;37.402;2023-08-12T05:47:08;99569.72;;;22.20;73.14
61109;BME280;46995;55.740;37.402;2023-08-12T05:49:34;99565.19;;;22.21;73.05
61109;BME280;46995;55.740;37.402;2023-08-12T05:51:59;99548.00;;;22.22;73.17
61109;BME280;46995;55.740;37.402;2023-08-12T05:54:25;99538.91;;;22.23;73.09
61109;BME280;46995;55.740;37.402;2023-08-12T05:56:50;99540.97;;;22.21;73.33
61109;BME280;46995;55.740;37.402;2023-08-12T05:59:16;99543.25;;;22.17;72.88
61109;BME280;46995;55.740;37.402;2023-08-12T06:01:41;99532.88;;;22.14;72.85
61109;BME280;46995;55.740;37.402;2023-08-12T06:04:07;99527.09;;;22.11;72.76
61109;BME280;46995;55.740;37.402;2023-08-12T06:06:32;99522.13;;;22.08;73.04
61109;BME280;46995;55.740;37.402;2023-08-12T06:08:58;99516.13;;;22.06;73.00
61109;BME280;46995;55.740;37.402;2023-08-12T06:11:24;99524.19;;;22.06;72.97
61109;BME280;46995;55.740;37.402;2023-08-12T06:13:49;99513.44;;;22.06;72.74
61109;BME280;46995;55.740;37.402;2023-08-12T06:16:15;99512.22;;;22.08;72.79
61109;BME280;46995;55.740;37.402;2023-08-12T06:18:40;99510.94;;;22.11;72.58
61109;BME280;46995;55.740;37.402;2023-08-12T06:21:06;99510.97;;;22.17;72.59
61109;BME280;46995;55.740;37.402;2023-08-12T06:23:32;99512.59;;;22.25;72.12
61109;BME280;46995;55.740;37.402;2023-08-12T06:25:57;99494.78;;;22.30;71.97
61109;BME280;46995;55.740;37.402;2023-08-12T06:28:25;99507.22;;;22.38;71.90
61109;BME280;46995;55.740;37.402;2023-08-12T06:30:50;99511.78;;;22.44;71.65
61109;BME280;46995;55.740;37.402;2023-08-12T06:33:16;99514.66;;;22.49;71.66
61109;BME280;46995;55.740;37.402;2023-08-12T06:35:41;99524.81;;;22.54;71.17
61109;BME280;46995;55.740;37.402;2023-08-12T06:38:07;99527.69;;;22.59;71.36
61109;BME280;46995;55.740;37.402;2023-08-12T06:40:35;99523.34;;;22.64;71.54
61109;BME280;46995;55.740;37.402;2023-08-12T06:43:02;99531.22;;;22.72;71.18
61109;BME280;46995;55.740;37.402;2023-08-12T06:45:27;99524.59;;;22.82;70.89
61109;BME280;46995;55.740;37.402;2023-08-12T06:47:53;99526.41;;;22.88;70.49
61109;BME280;46995;55.740;37.402;2023-08-12T06:50:18;99518.13;;;22.89;70.83
61109;BME280;46995;55.740;37.402;2023-08-12T06:52:44;99519.16;;;22.88;70.67
61109;BME280;46995;55.740;37.402;2023-08-12T06:55:09;99521.84;;;22.88;70.67
61109;BME280;46995;55.740;37.402;2023-08-12T06:57:35;99529.53;;;22.85;70.78
61109;BME280;46995;55.740;37.402;2023-08-12T07:00:01;99526.66;;;22.79;70.87
61109;BME280;46995;55.740;37.402;2023-08-12T07:02:27;99531.63;;;22.76;70.76
61109;BME280;46995;55.740;37.402;2023-08-12T07:04:52;99538.88;;;22.75;70.78
61109;BME280;46995;55.740;37.402;2023-08-12T07:07:19;99532.03;;;22.79;70.66
61109;BME280;46995;55.740;37.402;2023-08-12T07:09:44;99540.75;;;22.82;70.20
61109;BME280;46995;55.740;37.402;2023-08-12T07:12:10;99534.28;;;22.83;70.07
61109;BME280;46995;55.740;37.402;2023-08-12T07:14:36;99540.75;;;22.82;69.90
61109;BME280;46995;55.740;37.402;2023-08-12T07:17:02;99529.53;;;22.78;69.97
61109;BME280;46995;55.740;37.402;2023-08-12T07:19:27;99520.25;;;22.74;69.95
61109;BME280;46995;55.740;37.402;2023-08-12T07:21:53;99522.94;;;22.74;69.53
61109;BME280;46995;55.740;37.402;2023-08-12T07:24:19;99514.66;;;22.75;69.25
61109;BME280;46995;55.740;37.402;2023-08-12T07:26:44;99516.91;;;22.78;69.54
61109;BME280;46995;55.740;37.402;2023-08-12T07:29:10;99511.72;;;22.84;69.43
61109;BME280;46995;55.740;37.402;2023-08-12T07:31:35;99514.59;;;22.89;69.54
61109;BME280;46995;55.740;37.402;2023-08-12T07:34:01;99512.53;;;22.97;69.20
61109;BME280;46995;55.740;37.402;2023-08-12T07:36:26;99505.03;;;23.06;69.17
61109;BME280;46995;55.740;37.402;2023-08-12T07:38:52;99503.94;;;23.13;68.71
61109;BME280;46995;55.740;37.402;2023-08-12T07:41:18;99496.28;;;23.17;68.01
61109;BME280;46995;55.740;37.402;2023-08-12T07:43:43;99503.31;;;23.18;68.37
61109;BME280;46995;55.740;37.402;2023-08-12T07:46:09;99512.84;;;23.20;68.69
61109;BME280;46995;55.740;37.402;2023-08-12T07:48:35;99514.69;;;23.27;68.21
61109;BME280;46995;55.740;37.402;2023-08-12T07:51:00;99517.34;;;23.33;68.21
61109;BME280;46995;55.740;37.402;2023-08-12T07:53:26;99527.47;;;23.38;67.42
61109;BME280;46995;55.740;37.402;2023-08-12T07:55:51;99533.88;;;23.43;67.04
61109;BME280;46995;55.740;37.402;2023-08-12T07:58:17;99548.78;;;23.52;67.34
61109;BME280;46995;55.740;37.402;2023-08-12T08:00:43;99542.72;;;23.63;67.29
61109;BME280;46995;55.740;37.402;2023-08-12T08:03:08;99570.50;;;23.71;67.43
61109;BME280;46995;55.740;37.402;2023-08-12T08:05:34;99578.59;;;23.71;67.42
61109;BME280;46995;55.740;37.402;2023-08-12T08:07:59;99583.19;;;23.63;66.64
61109;BME280;46995;55.740;37.402;2023-08-12T08:10:25;99574.50;;;23.55;66.85
61109;BME280;46995;55.740;37.402;2023-08-12T08:12:51;99569.97;;;23.42;66.89
61109;BME280;46995;55.740;37.402;2023-08-12T08:15:16;99565.44;;;23.30;67.65
61109;BME280;46995;55.740;37.402;2023-08-12T08:17:42;99554.53;;;23.18;68.22
61109;BME280;46995;55.740;37.402;2023-08-12T08:20:07;99543.19;;;23.03;68.50
61109;BME280;46995;55.740;37.402;2023-08-12T08:22:33;99530.56;;;22.90;68.52
61109;BME280;46995;55.740;37.402;2023-08-12T08:24:59;99527.69;;;22.78;68.97
61109;BME280;46995;55.740;37.402;2023-08-12T08:27:25;99517.13;;;22.70;69.52
61109;BME280;46995;55.740;37.402;2023-08-12T08:29:50;99512.56;;;22.64;69.64
61109;BME280;46995;55.740;37.402;2023-08-12T08:32:16;99493.53;;;22.59;69.60
61109;BME280;46995;55.740;37.402;2023-08-12T08:34:42;99483.78;;;22.52;69.86
61109;BME280;46995;55.740;37.402;2023-08-12T08:37:07;99499.56;;;22.48;70.22
61109;BME280;46995;55.740;37.402;2023-08-12T08:39:33;99521.09;;;22.48;70.09
61109;BME280;46995;55.740;37.402;2023-08-12T08:41:58;99522.75;;;22.49;70.54
61109;BME280;46995;55.740;37.402;2023-08-12T08:44:24;99532.88;;;22.47;70.61
61109;BME280;46995;55.740;37.402;2023-08-12T08:46:53;99563.53;;;22.46;70.79
61109;BME280;46995;55.740;37.402;2023-08-12T08:49:20;99591.69;;;22.44;70.58
61109;BME280;46995;55.740;37.402;2023-08-12T08:51:46;99595.00;;;22.52;70.74
61109;BME280;46995;55.740;37.402;2023-08-12T08:54:12;99581.34;;;22.73;70.34
61109;BME280;46995;55.740;37.402;2023-08-12T08:56:38;99574.25;;;22.99;69.52
61109;BME280;46995;55.740;37.402;2023-08-12T08:59:04;99575.00;;;23.19;68.97
61109;BME280;46995;55.740;37.402;2023-08-12T09:01:29;99562.13;;;23.34;68.98
61109;BME280;46995;55.740;37.402;2023-08-12T09:03:56;99553.38;;;23.45;68.52
61109;BME280;46995;55.740;37.402;2023-08-12T09:06:26;99549.25;;;23.49;68.61
61109;BME280;46995;55.740;37.402;2023-08-12T09:08:54;99545.47;;;23.50;68.72
61109;BME280;46995;55.740;37.402;2023-08-12T09:11:20;99541.16;;;23.49;68.67
61109;BME280;46995;55.740;37.402;2023-08-12T09:13:46;99543.22;;;23.47;68.63
61109;BME280;46995;55.740;37.402;2023-08-12T09:16:11;99546.31;;;23.44;69.12
61109;BME280;46995;55.740;37.402;2023-08-12T09:18:37;99535.56;;;23.38;68.79
61109;BME280;46995;55.740;37.402;2023-08-12T09:21:03;99532.69;;;23.33;68.84
61109;BME280;46995;55.740;37.402;2023-08-12T09:23:33;99546.38;;;23.31;68.71
61109;BME280;46995;55.740;37.402;2023-08-12T09:26:00;99551.34;;;23.34;68.90
61109;BME280;46995;55.740;37.402;2023-08-12T09:28:26;99543.47;;;23.33;68.75
61109;BME280;46995;55.740;37.402;2023-08-12T09:30:51;99537.25;;;23.32;68.56
61109;BME280;46995;55.740;37.402;2023-08-12T09:33:24;99551.78;;;23.24;68.60
61109;BME280;46995;55.740;37.402;2023-08-12T09:35:49;99570.88;;;23.16;68.72
61109;BME280;46995;55.740;37.402;2023-08-12T09:38:15;99590.81;;;23.09;69.02
61109;BME280;46995;55.740;37.402;2023-08-12T09:40:40;99591.66;;;23.03;69.20
61109;BME280;46995;55.740;37.402;2023-08-12T09:43:06;99580.66;;;22.98;69.32
61109;BME280;46995;55.740;37.402;2023-08-12T09:45:32;99587.94;;;22.91;69.08
61109;BME280;46995;55.740;37.402;2023-08-12T09:47:57;99587.75;;;22.86;69.10
61109;BME280;46995;55.740;37.402;2023-08-12T09:50:24;99569.34;;;22.76;69.21
61109;BME280;46995;55.740;37.402;2023-08-12T09:52:51;99578.41;;;22.68;69.42
61109;BME280;46995;55.740;37.402;2023-08-12T09:55:17;99573.03;;;22.62;69.46
61109;BME280;46995;55.740;37.402;2023-08-12T09:57:44;99567.25;;;22.58;69.65
61109;BME280;46995;55.740;37.402;2023-08-12T10:00:13;99560.19;;;22.57;69.65
61109;BME280;46995;55.740;37.402;2023-08-12T10:02:45;99561.22;;;22.56;69.92
61109;BME280;46995;55.740;37.402;2023-08-12T10:05:11;99554.81;;;22.57;69.90
61109;BME280;46995;55.740;37.402;2023-08-12T10:07:37;99544.03;;;22.57;69.93
61109;BME280;46995;55.740;37.402;2023-08-12T10:10:04;99547.78;;;22.56;69.90
61109;BME280;46995;55.740;37.402;2023-08-12T10:12:31;99555.84;;;22.56;70.27
61109;BME280;46995;55.740;37.402;2023-08-12T10:14:57;99539.94;;;22.55;70.19
61109;BME280;46995;55.740;37.402;2023-08-12T10:17:23;99530.81;;;22.49;70.27
61109;BME280;46995;55.740;37.402;2023-08-12T10:19:54;99532.03;;;22.47;70.14
61109;BME280;46995;55.740;37.402;2023-08-12T10:22:20;99530.81;;;22.49;70.18
61109;BME280;46995;55.740;37.402;2023-08-12T10:24:46;99525.63;;;22.54;70.06
61109;BME280;46995;55.740;37.402;2023-08-12T10:27:12;99541.59;;;22.56;69.77
61109;BME280;46995;55.740;37.402;2023-08-12T10:29:38;99544.88;;;22.58;69.89
61109;BME280;46995;55.740;37.402;2023-08-12T10:32:04;99548.59;;;22.57;70.01
61109;BME280;46995;55.740;37.402;2023-08-12T10:34:29;99551.91;;;22.52;69.99
61109;BME280;46995;55.740;37.402;2023-08-12T10:36:56;99568.06;;;22.46;70.40
61109;BME280;46995;55.740;37.402;2023-08-12T10:39:28;99564.34;;;22.40;70.47
61109;BME280;46995;55.740;37.402;2023-08-12T10:41:57;99561.25;;;22.36;70.41
61109;BME280;46995;55.740;37.402;2023-08-12T10:44:26;99559.38;;;22.37;70.48
61109;BME280;46995;55.740;37.402;2023-08-12T10:46:52;99544.47;;;22.41;70.48
61109;BME280;46995;55.740;37.402;2023-08-12T10:49:19;99537.03;;;22.43;70.20
61109;BME280;46995;55.740;37.402;2023-08-12T10:51:52;99544.28;;;22.43;70.25
61109;BME280;46995;55.740;37.402;2023-08-12T10:54:24;99554.22;;;22.42;70.23
61109;BME280;46995;55.740;37.402;2023-08-12T11:05:08;99528.94;;;22.10;71.17
61109;BME280;46995;55.740;37.402;2023-08-12T11:07:37;99532.06;;;22.01;71.49
61109;BME280;46995;55.740;37.402;2023-08-12T11:10:04;99550.88;;;21.94;71.39
61109;BME280;46995;55.740;37.402;2023-08-12T11:12:30;99576.69;;;21.88;71.76
61109;BME280;46995;55.740;37.402;2023-08-12T11:15:00;99611.41;;;21.83;71.71
61109;BME280;46995;55.740;37.402;2023-08-12T11:20:21;99621.72;;;21.73;72.33
61109;BME280;46995;55.740;37.402;2023-08-12T11:22:46;99608.50;;;21.72;72.16
61109;BME280;46995;55.740;37.402;2023-08-12T11:25:12;99600.22;;;21.73;72.27
61109;BME280;46995;55.740;37.402;2023-08-12T11:27:42;99606.66;;;21.79;72.05
61109;BME280;46995;55.740;37.402;2023-08-12T11:30:08;99604.78;;;21.79;72.10
61109;BME280;46995;55.740;37.402;2023-08-12T11:32:36;99598.78;;;21.77;72.17
61109;BME280;46995;55.740;37.402;2023-08-12T11:35:02;99601.25;;;21.72;72.27
61109;BME280;46995;55.740;37.402;2023-08-12T11:37:28;99584.91;;;21.67;72.13
61109;BME280;46995;55.740;37.402;2023-08-12T11:39:54;99573.31;;;21.60;72.42
61109;BME280;46995;55.740;37.402;2023-08-12T11:42:20;99578.25;;;21.50;73.04
61109;BME280;46995;55.740;37.402;2023-08-12T11:44:45;99576.34;;;21.44;73.09
61109;BME280;46995;55.740;37.402;2023-08-12T11:47:11;99572.41;;;21.40;73.34
61109;BME280;46995;55.740;37.402;2023-08-12T11:49:36;99571.13;;;21.36;73.41
61109;BME280;46995;55.740;37.402;2023-08-12T11:52:02;99565.34;;;21.32;74.26
61109;BME280;46995;55.740;37.402;2023-08-12T11:54:28;99552.50;;;21.28;73.32
61109;BME280;46995;55.740;37.402;2023-08-12T11:56:54;99554.34;;;21.21;74.08
61109;BME280;46995;55.740;37.402;2023-08-12T11:59:22;99551.22;;;21.17;74.45
61109;BME280;46995;55.740;37.402;2023-08-12T12:01:51;99535.53;;;21.14;74.48
61109;BME280;46995;55.740;37.402;2023-08-12T12:04:17;99521.41;;;21.12;74.50
61109;BME280;46995;55.740;37.402;2023-08-12T12:06:46;99519.72;;;21.04;74.81
61109;BME280;46995;55.740;37.402;2023-08-12T12:09:13;99523.00;;;21.00;74.96
61109;BME280;46995;55.740;37.402;2023-08-12T12:11:39;99512.69;;;20.97;74.74
61109;BME280;46995;55.740;37.402;2023-08-12T12:14:08;99497.41;;;20.97;75.39
61109;BME280;46995;55.740;37.402;2023-08-12T12:16:38;99476.31;;;20.94;74.94
61109;BME280;46995;55.740;37.402;2023-08-12T12:19:19;99470.69;;;20.89;75.19
61109;BME280;46995;55.740;37.402;2023-08-12T12:21:49;99461.16;;;20.80;75.86
61109;BME280;46995;55.740;37.402;2023-08-12T12:24:15;99449.78;;;20.71;75.88
61109;BME280;46995;55.740;37.402;2023-08-12T12:26:40;99446.25;;;20.71;76.24
61109;BME280;46995;55.740;37.402;2023-08-12T12:29:06;99448.53;;;20.74;75.53
61109;BME280;46995;55.740;37.402;2023-08-12T12:31:33;99455.81;;;20.80;75.57
61109;BME280;46995;55.740;37.402;2023-08-12T12:34:00;99456.03;;;20.85;75.76
61109;BME280;46995;55.740;37.402;2023-08-12T12:36:25;99441.97;;;20.83;75.82
61109;BME280;46995;55.740;37.402;2023-08-12T12:38:53;99435.34;;;20.79;75.88
61109;BME280;46995;55.740;37.402;2023-08-12T12:41:20;99438.63;;;20.75;76.40
61109;BME280;46995;55.740;37.402;2023-08-12T12:43:45;99448.53;;;20.74;77.29
61109;BME280;46995;55.740;37.402;2023-08-12T12:46:11;99474.13;;;20.70;76.61
61109;BME280;46995;55.740;37.402;2023-08-12T12:48:37;99491.06;;;20.70;76.49
61109;BME280;46995;55.740;37.402;2023-08-12T12:51:02;99498.31;;;20.77;77.24
61109;BME280;46995;55.740;37.402;2023-08-12T12:53:28;99511.75;;;20.83;77.07
61109;BME280;46995;55.740;37.402;2023-08-12T12:55:53;99500.66;;;20.86;77.08
61109;BME280;46995;55.740;37.402;2023-08-12T12:58:19;99492.81;;;20.91;76.79